createdAt,value
2023-05-24T00:00:07.513Z,4.88
2023-05-24T00:02:34.558Z,4.45
2023-05-24T00:05:01.643Z,4.60
2023-05-24T00:07:28.657Z,4.85
2023-05-24T00:09:55.585Z,4.70
2023-05-24T00:12:22.484Z,4.47
2023-05-24T00:14:49.392Z,5.07
2023-05-24T00:17:16.337Z,4.50
2023-05-24T00:19:43.220Z,4.70
2023-05-24T00:22:10.107Z,4.90
2023-05-24T00:24:36.991Z,5.22
2023-05-24T00:27:04.072Z,4.80
2023-05-24T00:29:32.310Z,4.22
2023-05-24T00:31:59.426Z,5.32
2023-05-24T00:34:26.355Z,5.20
2023-05-24T00:36:53.262Z,4.90
2023-05-24T00:39:20.238Z,5.35
2023-05-24T00:41:47.172Z,5.50
2023-05-24T00:44:14.082Z,5.00
2023-05-24T00:46:41.691Z,5.20
2023-05-24T00:49:09.200Z,5.60
2023-05-24T00:51:37.189Z,6.20
2023-05-24T00:54:04.336Z,6.00
2023-05-24T00:56:31.510Z,6.75
2023-05-24T00:58:58.907Z,6.47
2023-05-24T01:01:26.060Z,6.20
2023-05-24T01:03:54.030Z,6.60
2023-05-24T01:06:21.556Z,6.65
2023-05-24T01:09:09.741Z,7.30
2023-05-24T01:11:55.269Z,7.07
2023-05-24T01:14:47.165Z,7.10
2023-05-24T01:17:23.823Z,7.50
2023-05-24T01:20:07.269Z,7.50
2023-05-24T01:22:48.924Z,7.45
2023-05-24T01:25:54.452Z,6.85
2023-05-24T01:28:22.477Z,7.50
2023-05-24T01:30:49.633Z,7.70
2023-05-24T01:33:16.630Z,8.00
2023-05-24T01:35:43.569Z,8.30
2023-05-24T01:38:10.825Z,7.85
2023-05-24T01:40:38.705Z,7.78
2023-05-24T01:43:15.892Z,7.32
2023-05-24T01:45:59.439Z,8.00
2023-05-24T01:48:32.168Z,8.75
2023-05-24T01:51:00.571Z,9.20
2023-05-24T01:53:33.831Z,8.32
2023-05-24T01:56:03.795Z,8.70
2023-05-24T01:58:32.012Z,8.30
2023-05-24T02:00:59.637Z,8.48
2023-05-24T02:03:26.644Z,8.73
2023-05-24T02:05:53.596Z,8.20
2023-05-24T02:08:20.518Z,9.02
2023-05-24T02:10:47.504Z,9.10
2023-05-24T02:13:14.403Z,8.25
2023-05-24T02:15:41.346Z,8.05
2023-05-24T02:18:08.405Z,8.60
2023-05-24T02:20:35.457Z,8.05
2023-05-24T02:23:03.155Z,8.70
2023-05-24T02:25:30.229Z,8.60
2023-05-24T02:27:57.611Z,9.13
2023-05-24T02:30:24.597Z,8.13
2023-05-24T02:32:51.822Z,8.60
2023-05-24T02:35:18.862Z,8.18
2023-05-24T02:37:45.847Z,8.10
2023-05-24T02:40:13.080Z,8.50
2023-05-24T02:42:40.158Z,8.48
2023-05-24T02:45:07.739Z,8.30
2023-05-24T02:47:34.677Z,8.50
2023-05-24T02:50:01.596Z,8.50
2023-05-24T02:52:28.510Z,8.50
2023-05-24T02:54:55.405Z,8.48
2023-05-24T02:57:22.327Z,8.43
2023-05-24T02:59:49.297Z,11.87
2023-05-24T03:02:16.236Z,10.05
2023-05-24T03:04:43.261Z,21.00
2023-05-24T03:07:10.176Z,26.63
2023-05-24T03:09:37.084Z,10.25
2023-05-24T03:12:04.193Z,9.40
2023-05-24T03:14:31.106Z,8.40
2023-05-24T03:16:58.019Z,8.20
2023-05-24T03:19:24.935Z,10.10
2023-05-24T03:21:51.872Z,12.53
2023-05-24T03:24:18.823Z,11.75
2023-05-24T03:26:45.716Z,9.30
2023-05-24T03:29:12.719Z,8.50
2023-05-24T03:31:39.714Z,7.60
2023-05-24T03:34:06.629Z,7.97
2023-05-24T03:36:33.541Z,8.13
2023-05-24T03:39:00.494Z,12.00
2023-05-24T03:41:27.433Z,7.50
2023-05-24T03:43:54.383Z,8.02
2023-05-24T03:46:21.335Z,9.15
2023-05-24T03:48:49.229Z,7.80
2023-05-24T03:51:16.250Z,8.47
2023-05-24T03:53:43.141Z,8.30
2023-05-24T03:56:10.095Z,8.73
2023-05-24T03:58:37.033Z,8.15
2023-05-24T04:01:04.448Z,7.60
2023-05-24T04:03:31.515Z,8.30
2023-05-24T04:05:58.459Z,8.35
2023-05-24T04:08:25.371Z,7.90
2023-05-24T04:10:52.294Z,8.40
2023-05-24T04:13:19.151Z,8.15
2023-05-24T04:15:46.092Z,8.30
2023-05-24T04:18:13.142Z,7.90
2023-05-24T04:20:40.261Z,8.40
2023-05-24T04:23:07.279Z,7.88
2023-05-24T04:25:34.153Z,7.63
2023-05-24T04:28:01.131Z,7.82
2023-05-24T04:30:28.164Z,7.93
2023-05-24T04:32:55.111Z,8.02
2023-05-24T04:35:22.145Z,8.90
2023-05-24T04:37:49.067Z,7.90
2023-05-24T04:40:16.075Z,7.85
2023-05-24T04:42:43.098Z,8.52
2023-05-24T04:45:10.418Z,9.32
2023-05-24T04:47:37.339Z,9.80
2023-05-24T04:50:04.855Z,7.95
2023-05-24T04:52:44.281Z,7.85
2023-05-24T04:55:11.202Z,9.10
2023-05-24T04:57:38.103Z,9.57
2023-05-24T05:00:05.501Z,8.18
2023-05-24T05:02:33.062Z,8.45
2023-05-24T05:05:00.067Z,8.57
2023-05-24T05:07:27.023Z,13.10
2023-05-24T05:09:53.968Z,14.95
2023-05-24T05:12:20.898Z,21.33
2023-05-24T05:14:47.843Z,10.57
2023-05-24T05:17:14.774Z,8.77
2023-05-24T05:19:41.667Z,8.45
2023-05-24T05:22:08.573Z,9.20
2023-05-24T05:24:35.480Z,8.60
2023-05-24T05:27:02.394Z,11.68
2023-05-24T05:29:29.269Z,11.93
2023-05-24T05:31:56.256Z,13.75
2023-05-24T05:34:23.189Z,9.70
2023-05-24T05:36:50.084Z,9.00
2023-05-24T05:39:17.128Z,9.35
2023-05-24T05:41:45.693Z,8.48
2023-05-24T05:44:13.453Z,8.45
2023-05-24T05:46:40.612Z,8.15
2023-05-24T05:49:07.559Z,8.55
2023-05-24T05:51:34.463Z,8.68
2023-05-24T05:54:01.388Z,8.80
2023-05-24T05:56:28.288Z,11.23
2023-05-24T05:58:55.198Z,13.80
2023-05-24T06:01:23.728Z,14.18
2023-05-24T06:03:51.522Z,13.20
2023-05-24T06:06:18.612Z,12.27
2023-05-24T06:08:45.561Z,9.02
2023-05-24T06:11:12.475Z,8.50
2023-05-24T06:13:39.407Z,8.02
2023-05-24T06:16:06.510Z,8.60
2023-05-24T06:18:33.416Z,8.40
2023-05-24T06:21:00.299Z,7.97
2023-05-24T06:23:27.222Z,8.50
2023-05-24T06:25:54.189Z,8.73
2023-05-24T06:28:21.081Z,8.30
2023-05-24T06:30:47.991Z,8.15
2023-05-24T06:33:14.951Z,9.00
2023-05-24T06:35:41.842Z,10.05
2023-05-24T06:38:08.797Z,9.10
2023-05-24T06:40:35.755Z,8.82
2023-05-24T06:43:02.651Z,9.30
2023-05-24T06:45:29.561Z,9.95
2023-05-24T06:47:56.525Z,9.10
2023-05-24T06:50:23.592Z,12.40
2023-05-24T06:52:50.585Z,8.88
2023-05-24T06:55:17.506Z,9.20
2023-05-24T06:57:44.437Z,9.10
2023-05-24T07:00:11.944Z,8.38
2023-05-24T07:02:39.622Z,8.43
2023-05-24T07:05:07.325Z,8.32
2023-05-24T07:07:34.274Z,7.40
2023-05-24T07:10:01.179Z,8.13
2023-05-24T07:12:28.145Z,7.97
2023-05-24T07:14:55.029Z,8.70
2023-05-24T07:17:22.075Z,9.17
2023-05-24T07:19:52.037Z,6.97
2023-05-24T07:22:18.922Z,7.93
2023-05-24T07:24:45.875Z,7.38
2023-05-24T07:27:12.760Z,8.45
2023-05-24T07:29:39.688Z,7.57
2023-05-24T07:32:06.857Z,8.35
2023-05-24T07:34:33.778Z,9.17
2023-05-24T07:37:01.824Z,7.70
2023-05-24T07:39:28.798Z,9.20
2023-05-24T07:41:55.752Z,9.07
2023-05-24T07:44:22.885Z,7.65
2023-05-24T07:46:50.062Z,6.90
2023-05-24T07:49:17.394Z,6.70
2023-05-24T07:51:44.285Z,8.07
2023-05-24T07:54:11.294Z,7.40
2023-05-24T07:56:38.200Z,7.07
2023-05-24T07:59:05.136Z,6.85
2023-05-24T08:01:33.209Z,6.10
2023-05-24T08:04:00.613Z,6.07
2023-05-24T08:06:27.654Z,6.78
2023-05-24T08:08:54.588Z,6.95
2023-05-24T08:11:21.594Z,7.40
2023-05-24T08:13:48.579Z,6.95
2023-05-24T08:16:15.571Z,6.65
2023-05-24T08:18:42.488Z,6.83
2023-05-24T08:21:09.424Z,6.03
2023-05-24T08:23:36.382Z,6.30
2023-05-24T08:26:03.344Z,6.00
2023-05-24T08:28:30.329Z,9.00
2023-05-24T08:30:57.243Z,6.82
2023-05-24T08:33:24.242Z,7.97
2023-05-24T08:35:51.562Z,6.38
2023-05-24T08:38:18.973Z,6.68
2023-05-24T08:40:46.067Z,5.33
2023-05-24T08:43:13.297Z,5.35
2023-05-24T08:45:40.483Z,6.00
2023-05-24T08:48:07.697Z,5.45
2023-05-24T08:50:35.240Z,5.95
2023-05-24T08:53:02.587Z,5.28
2023-05-24T08:55:33.262Z,5.90
2023-05-24T08:58:01.162Z,5.45
2023-05-24T09:00:28.279Z,5.80
2023-05-24T09:02:57.493Z,7.43
2023-05-24T09:05:26.092Z,6.25
2023-05-24T09:07:54.500Z,5.30
2023-05-24T09:10:22.758Z,5.20
2023-05-24T09:12:55.482Z,4.82
2023-05-24T09:15:22.504Z,5.00
2023-05-24T09:17:49.569Z,4.80
2023-05-24T09:20:16.604Z,6.40
2023-05-24T09:22:44.096Z,5.70
2023-05-24T09:25:14.219Z,5.70
2023-05-24T09:27:41.250Z,4.53
2023-05-24T09:30:11.534Z,4.32
2023-05-24T09:32:38.704Z,4.40
2023-05-24T09:35:09.014Z,4.50
2023-05-24T09:37:37.352Z,4.15
2023-05-24T09:40:05.137Z,4.38
2023-05-24T09:42:32.075Z,4.60
2023-05-24T09:45:06.842Z,4.00
2023-05-24T09:47:34.962Z,4.18
2023-05-24T09:50:03.111Z,4.05
2023-05-24T09:52:30.163Z,4.27
2023-05-24T09:54:57.296Z,4.40
2023-05-24T09:57:24.631Z,4.50
2023-05-24T09:59:51.743Z,4.25
2023-05-24T10:02:21.588Z,4.22
2023-05-24T10:04:48.812Z,5.00
2023-05-24T10:07:16.564Z,4.93
2023-05-24T10:09:45.870Z,4.40
2023-05-24T10:12:12.839Z,5.80
2023-05-24T10:14:39.835Z,5.03
2023-05-24T10:17:08.059Z,5.25
2023-05-24T10:19:36.763Z,5.00
2023-05-24T10:22:08.018Z,4.82
2023-05-24T10:24:46.948Z,6.20
2023-05-24T10:27:18.169Z,6.45
2023-05-24T10:29:53.691Z,6.72
2023-05-24T10:32:22.685Z,5.70
2023-05-24T10:34:50.583Z,6.50
2023-05-24T10:37:20.515Z,6.90
2023-05-24T10:39:47.474Z,5.90
2023-05-24T10:42:14.468Z,7.72
2023-05-24T10:44:41.446Z,7.30
2023-05-24T10:47:10.691Z,6.57
2023-05-24T10:49:39.050Z,6.88
2023-05-24T10:52:10.780Z,6.70
2023-05-24T10:54:38.553Z,10.50
2023-05-24T10:57:07.476Z,8.07
2023-05-24T10:59:38.427Z,6.80
2023-05-24T11:02:07.922Z,6.50
2023-05-24T11:04:38.265Z,6.30
2023-05-24T11:07:06.525Z,6.45
2023-05-24T11:09:33.668Z,6.22
2023-05-24T11:12:03.151Z,6.57
2023-05-24T11:14:31.988Z,7.00
2023-05-24T11:16:59.505Z,6.75
2023-05-24T11:19:37.148Z,5.93
2023-05-24T11:22:08.931Z,6.17
2023-05-24T11:24:36.179Z,5.72
2023-05-24T11:27:03.177Z,6.00
2023-05-24T11:29:30.948Z,6.00
2023-05-24T11:31:59.677Z,5.75
2023-05-24T11:34:26.813Z,5.70
2023-05-24T11:36:53.879Z,5.87
2023-05-24T11:39:21.062Z,5.80
2023-05-24T11:41:48.003Z,5.45
2023-05-24T11:44:18.274Z,6.00
2023-05-24T11:46:46.249Z,5.70
2023-05-24T11:49:17.607Z,5.80
2023-05-24T11:51:44.605Z,5.20
2023-05-24T11:54:11.981Z,5.25
2023-05-24T11:56:38.997Z,5.38
2023-05-24T11:59:15.019Z,5.63
2023-05-24T12:01:42.065Z,4.80
2023-05-24T12:04:09.696Z,5.30
2023-05-24T12:06:40.257Z,5.40
2023-05-24T12:09:08.510Z,5.40
2023-05-24T12:11:39.628Z,5.25
2023-05-24T12:14:07.358Z,4.90
2023-05-24T12:16:36.556Z,5.18
2023-05-24T12:19:09.389Z,5.30
2023-05-24T12:21:44.225Z,5.93
2023-05-24T12:24:12.766Z,7.65
2023-05-24T12:26:47.617Z,6.50
2023-05-24T12:29:15.552Z,5.07
2023-05-24T12:31:48.249Z,4.60
2023-05-24T12:34:19.904Z,4.68
2023-05-24T12:36:49.706Z,4.70
2023-05-24T12:39:21.496Z,4.65
2023-05-24T12:41:55.572Z,4.55
2023-05-24T12:44:26.561Z,4.80
2023-05-24T12:46:54.757Z,4.47
2023-05-24T12:49:26.068Z,4.38
2023-05-24T12:51:54.632Z,3.90
2023-05-24T12:54:24.508Z,4.10
2023-05-24T12:56:55.654Z,4.10
2023-05-24T12:59:23.681Z,4.03
2023-05-24T13:01:50.639Z,4.07
2023-05-24T13:04:21.880Z,3.97
2023-05-24T13:06:49.364Z,7.03
2023-05-24T13:09:16.888Z,6.32
2023-05-24T13:11:43.873Z,11.05
2023-05-24T13:14:10.788Z,4.70
2023-05-24T13:16:37.754Z,4.78
2023-05-24T13:19:04.760Z,4.50
2023-05-24T13:21:31.662Z,5.45
2023-05-24T13:23:58.591Z,4.53
2023-05-24T13:26:25.551Z,3.90
2023-05-24T13:29:08.069Z,4.10
2023-05-24T13:31:39.395Z,3.70
2023-05-24T13:34:06.805Z,3.63
2023-05-24T13:36:35.336Z,3.40
2023-05-24T13:39:14.786Z,4.00
2023-05-24T13:41:43.781Z,4.00
2023-05-24T13:44:11.503Z,4.10
2023-05-24T13:46:39.349Z,3.28
2023-05-24T13:49:07.128Z,3.17
2023-05-24T13:51:34.231Z,3.20
2023-05-24T13:54:01.584Z,3.50
2023-05-24T13:56:28.923Z,4.00
2023-05-24T13:58:55.828Z,4.40
2023-05-24T14:01:22.798Z,6.55
2023-05-24T14:03:49.742Z,4.68
2023-05-24T14:06:16.827Z,3.70
2023-05-24T14:08:43.904Z,3.30
2023-05-24T14:11:10.877Z,3.30
2023-05-24T14:16:09.222Z,3.20
2023-05-24T14:18:36.279Z,3.40
2023-05-24T14:21:03.715Z,3.20
2023-05-24T14:23:31.160Z,3.20
2023-05-24T14:26:01.580Z,3.20
2023-05-24T14:28:28.559Z,3.47
2023-05-24T14:30:55.499Z,3.30
2023-05-24T14:33:22.403Z,3.30
2023-05-24T14:35:50.789Z,2.80
2023-05-24T14:38:17.671Z,3.20
2023-05-24T14:40:44.663Z,3.40
2023-05-24T14:43:11.648Z,3.00
2023-05-24T14:45:40.168Z,3.70
2023-05-24T14:48:08.062Z,4.07
2023-05-24T14:50:34.988Z,3.50
2023-05-24T14:53:02.010Z,2.80
2023-05-24T14:55:28.901Z,3.53
2023-05-24T14:57:55.837Z,3.40
2023-05-24T15:00:23.705Z,3.20
2023-05-24T15:02:52.165Z,3.43
2023-05-24T15:05:19.778Z,3.30
2023-05-24T15:07:47.297Z,3.20
2023-05-24T15:10:14.210Z,3.20
2023-05-24T15:12:41.158Z,3.20
2023-05-24T15:15:08.578Z,3.20
2023-05-24T15:17:35.581Z,3.08
2023-05-24T15:20:02.745Z,3.00
2023-05-24T15:22:29.689Z,3.03
2023-05-24T15:24:56.581Z,3.30
2023-05-24T15:27:23.470Z,3.80
2023-05-24T15:29:50.391Z,2.90
2023-05-24T15:32:17.311Z,2.80
2023-05-24T15:34:44.219Z,3.63
2023-05-24T15:37:11.123Z,3.15
2023-05-24T15:39:38.037Z,3.83
2023-05-24T15:42:05.094Z,4.28
2023-05-24T15:44:32.006Z,4.80
2023-05-24T15:46:59.100Z,6.78
2023-05-24T15:49:26.048Z,4.47
2023-05-24T15:54:22.791Z,3.30
2023-05-24T15:56:49.878Z,3.17
2023-05-24T15:59:16.844Z,2.90
2023-05-24T16:01:43.814Z,3.20
2023-05-24T16:04:10.748Z,3.47
2023-05-24T16:06:37.904Z,3.45
2023-05-24T16:09:04.850Z,3.58
2023-05-24T16:11:31.734Z,4.10
2023-05-24T16:13:58.644Z,4.10
2023-05-24T16:16:26.464Z,4.03
2023-05-24T16:18:53.354Z,3.22
2023-05-24T16:21:20.257Z,2.60
2023-05-24T16:23:47.210Z,3.60
2023-05-24T16:26:14.164Z,3.13
2023-05-24T16:28:41.154Z,3.30
2023-05-24T16:31:08.104Z,2.95
2023-05-24T16:33:34.992Z,3.10
2023-05-24T16:36:03.436Z,7.65
2023-05-24T16:38:30.633Z,6.35
2023-05-24T16:40:57.570Z,3.80
2023-05-24T16:43:24.483Z,4.70
2023-05-24T16:45:51.776Z,3.25
2023-05-24T16:48:18.917Z,3.40
2023-05-24T16:50:45.859Z,3.20
2023-05-24T16:53:12.803Z,3.42
2023-05-24T16:55:39.721Z,3.25
2023-05-24T16:58:06.657Z,3.38
2023-05-24T17:00:33.559Z,3.45
2023-05-24T17:03:00.643Z,3.20
2023-05-24T17:05:27.660Z,2.80
2023-05-24T17:07:55.209Z,3.00
2023-05-24T17:10:22.159Z,2.90
2023-05-24T17:12:49.126Z,2.77
2023-05-24T17:15:16.131Z,3.10
2023-05-24T17:17:43.062Z,3.47
2023-05-24T17:20:10.448Z,3.10
2023-05-24T17:22:37.416Z,3.08
2023-05-24T17:25:04.683Z,2.72
2023-05-24T17:27:31.744Z,2.80
2023-05-24T17:29:58.601Z,3.10
2023-05-24T17:32:25.630Z,2.90
2023-05-24T17:34:52.783Z,3.50
2023-05-24T17:37:19.716Z,4.20
2023-05-24T17:39:46.601Z,8.95
2023-05-24T17:42:13.529Z,8.00
2023-05-24T17:44:40.480Z,3.30
2023-05-24T17:47:07.410Z,2.92
2023-05-24T17:49:34.405Z,2.90
2023-05-24T17:52:01.433Z,3.10
2023-05-24T17:54:28.464Z,2.90
2023-05-24T17:56:55.411Z,2.90
2023-05-24T17:59:22.459Z,4.10
2023-05-24T18:01:49.429Z,3.25
2023-05-24T18:04:16.491Z,12.65
2023-05-24T18:06:43.885Z,13.70
2023-05-24T18:09:10.856Z,9.05
2023-05-24T18:11:37.769Z,8.00
2023-05-24T18:14:04.667Z,9.07
2023-05-24T18:16:31.754Z,13.27
2023-05-24T18:18:58.711Z,22.65
2023-05-24T18:21:25.592Z,12.20
2023-05-24T18:23:52.499Z,13.80
2023-05-24T18:26:19.387Z,10.47
2023-05-24T18:28:46.337Z,15.48
2023-05-24T18:31:13.338Z,7.80
2023-05-24T18:33:40.586Z,6.35
2023-05-24T18:36:07.834Z,6.50
2023-05-24T18:38:35.865Z,5.35
2023-05-24T18:41:05.697Z,3.22
2023-05-24T18:43:33.529Z,3.50
2023-05-24T18:46:00.652Z,3.50
2023-05-24T18:48:27.848Z,3.38
2023-05-24T18:50:54.753Z,5.43
2023-05-24T18:53:21.741Z,4.70
2023-05-24T18:55:48.638Z,4.20
2023-05-24T18:58:15.589Z,4.22
2023-05-24T19:00:42.591Z,4.00
2023-05-24T19:03:10.091Z,4.03
2023-05-24T19:05:37.062Z,3.80
2023-05-24T19:08:03.961Z,3.60
2023-05-24T19:10:30.908Z,3.53
2023-05-24T19:12:57.845Z,3.63
2023-05-24T19:15:24.720Z,3.55
2023-05-24T19:17:51.659Z,4.03
2023-05-24T19:20:18.808Z,3.70
2023-05-24T19:22:45.800Z,3.65
2023-05-24T19:25:12.781Z,3.20
2023-05-24T19:27:47.789Z,3.73
2023-05-24T19:30:25.327Z,3.90
2023-05-24T19:32:52.279Z,4.20
2023-05-24T19:35:19.233Z,3.80
2023-05-24T19:37:46.173Z,4.20
2023-05-24T19:40:13.192Z,4.20
2023-05-24T19:42:40.102Z,4.60
2023-05-24T19:45:07.496Z,4.00
2023-05-24T19:47:34.473Z,5.30
2023-05-24T19:50:01.383Z,4.60
2023-05-24T19:52:28.273Z,4.40
2023-05-24T19:54:55.214Z,4.00
2023-05-24T19:57:22.114Z,4.03
2023-05-24T19:59:49.068Z,4.20
2023-05-24T20:02:16.140Z,4.32
2023-05-24T20:04:43.076Z,3.80
2023-05-24T20:07:10.751Z,4.70
2023-05-24T20:09:37.715Z,5.30
2023-05-24T20:12:04.820Z,7.20
2023-05-24T20:14:31.880Z,8.15
2023-05-24T20:17:01.773Z,8.95
2023-05-24T20:19:28.664Z,9.20
2023-05-24T20:21:55.639Z,7.60
2023-05-24T20:24:22.609Z,7.43
2023-05-24T20:26:49.542Z,6.50
2023-05-24T20:29:16.524Z,5.50
2023-05-24T20:31:43.476Z,5.90
2023-05-24T20:34:10.387Z,5.28
2023-05-24T20:36:37.374Z,5.47
2023-05-24T20:39:04.293Z,4.60
2023-05-24T20:41:31.409Z,4.57
2023-05-24T20:43:58.347Z,4.40
2023-05-24T20:46:25.554Z,4.70
2023-05-24T20:48:53.730Z,4.70
2023-05-24T20:51:20.720Z,4.35
2023-05-24T20:53:47.743Z,5.10
2023-05-24T20:56:14.705Z,4.60
2023-05-24T20:58:41.632Z,4.70
2023-05-24T21:01:08.609Z,4.20
2023-05-24T21:03:35.992Z,4.00
2023-05-24T21:06:03.110Z,4.20
2023-05-24T21:08:30.814Z,4.70
2023-05-24T21:10:57.725Z,4.40
2023-05-24T21:13:24.734Z,4.40
2023-05-24T21:15:51.890Z,4.60
2023-05-24T21:18:18.854Z,4.80
2023-05-24T21:20:46.259Z,5.00
2023-05-24T21:23:13.168Z,4.30
2023-05-24T21:25:40.092Z,4.97
2023-05-24T21:28:06.985Z,4.60
2023-05-24T21:30:33.875Z,4.65
2023-05-24T21:33:00.832Z,4.43
2023-05-24T21:35:27.727Z,4.78
2023-05-24T21:37:57.160Z,5.40
2023-05-24T21:40:24.551Z,4.95
2023-05-24T21:42:51.515Z,4.70
2023-05-24T21:45:18.548Z,5.60
2023-05-24T21:47:45.594Z,5.20
2023-05-24T21:50:13.574Z,5.97
2023-05-24T21:52:40.530Z,5.60
2023-05-24T21:55:07.821Z,5.93
2023-05-24T21:57:34.734Z,5.80
2023-05-24T22:00:02.767Z,5.57
2023-05-24T22:02:29.858Z,6.30
2023-05-24T22:04:56.794Z,6.10
2023-05-24T22:07:23.705Z,6.00
2023-05-24T22:09:50.624Z,7.80
2023-05-24T22:12:17.532Z,7.28
2023-05-24T22:14:44.524Z,7.90
2023-05-24T22:17:11.402Z,7.28
2023-05-24T22:19:40.550Z,7.30
2023-05-24T22:22:11.541Z,8.50
2023-05-24T22:24:39.315Z,8.07
2023-05-24T22:27:06.915Z,7.95
2023-05-24T22:29:33.886Z,7.88
2023-05-24T22:32:00.942Z,9.93
2023-05-24T22:34:31.229Z,8.60
2023-05-24T22:36:58.718Z,8.90
2023-05-24T22:39:25.667Z,9.98
2023-05-24T22:41:53.618Z,9.70
2023-05-24T22:44:20.638Z,10.52
2023-05-24T22:46:48.551Z,9.93
2023-05-24T22:49:16.168Z,10.00
2023-05-24T22:51:43.066Z,12.68
2023-05-24T22:54:11.017Z,10.23
2023-05-24T22:56:38.694Z,11.10
2023-05-24T22:59:06.545Z,10.38
2023-05-24T23:01:33.968Z,10.88
2023-05-24T23:04:15.729Z,10.18
2023-05-24T23:06:47.235Z,11.15
2023-05-24T23:09:14.274Z,10.38
2023-05-24T23:11:41.181Z,10.77
2023-05-24T23:14:08.197Z,10.90
2023-05-24T23:16:35.604Z,12.20
2023-05-24T23:19:02.519Z,12.10
2023-05-24T23:21:29.458Z,14.43
2023-05-24T23:23:56.375Z,11.60
2023-05-24T23:26:23.251Z,11.70
2023-05-24T23:28:50.178Z,11.20
2023-05-24T23:31:17.141Z,13.23
2023-05-24T23:33:44.068Z,13.45
2023-05-24T23:36:10.990Z,11.43
2023-05-24T23:38:41.447Z,12.70
2023-05-24T23:41:08.424Z,13.75
2023-05-24T23:43:35.345Z,12.93
2023-05-24T23:46:02.256Z,12.63
2023-05-24T23:48:29.167Z,14.93
2023-05-24T23:50:56.078Z,14.18
2023-05-24T23:53:22.968Z,13.70
2023-05-24T23:55:49.849Z,14.32
2023-05-24T23:58:16.839Z,16.25
